sensor_id;sensor_type;location;lat;lon;timestamp;noise_LAeq;noise_LA_min;noise_LA_max;noise_LA01;noise_LA95
71628;Laerm;59477;52.374;9.916;2023-09-19T00:00:32;43.08;39.92;48.47;;
71628;Laerm;59477;52.374;9.916;2023-09-19T00:02:33;41.72;39.04;47.28;;
71628;Laerm;59477;52.374;9.916;2023-09-19T00:04:34;41.60;39.34;44.72;;
71628;Laerm;59477;52.374;9.916;2023-09-19T00:06:34;42.02;39.24;45.73;;
71628;Laerm;59477;52.374;9.916;2023-09-19T00:08:35;42.66;38.76;59.59;;
71628;Laerm;59477;52.374;9.916;2023-09-19T00:10:35;43.37;38.97;49.12;;
71628;Laerm;59477;52.374;9.916;2023-09-19T00:12:36;41.11;38.46;44.13;;
71628;Laerm;59477;52.374;9.916;2023-09-19T00:14:36;42.26;39.55;45.98;;
71628;Laerm;59477;52.374;9.916;2023-09-19T00:16:36;42.36;39.42;46.37;;
71628;Laerm;59477;52.374;9.916;2023-09-19T00:18:37;42.54;39.13;47.84;;
71628;Laerm;59477;52.374;9.916;2023-09-19T00:20:38;44.14;40.26;47.67;;
71628;Laerm;59477;52.374;9.916;2023-09-19T00:22:39;42.00;39.27;44.76;;
71628;Laerm;59477;52.374;9.916;2023-09-19T00:24:39;43.63;40.49;46.75;;
71628;Laerm;59477;52.374;9.916;2023-09-19T00:26:40;42.98;40.04;51.64;;
71628;Laerm;59477;52.374;9.916;2023-09-19T00:28:40;44.94;40.95;57.25;;
71628;Laerm;59477;52.374;9.916;2023-09-19T00:30:42;43.00;40.31;47.37;;
71628;Laerm;59477;52.374;9.916;2023-09-19T00:32:42;43.97;39.93;50.52;;
71628;Laerm;59477;52.374;9.916;2023-09-19T00:34:43;43.12;39.80;49.90;;
71628;Laerm;59477;52.374;9.916;2023-09-19T00:36:43;42.47;39.33;46.71;;
71628;Laerm;59477;52.374;9.916;2023-09-19T00:38:43;42.21;38.76;46.08;;
71628;Laerm;59477;52.374;9.916;2023-09-19T00:40:46;43.01;39.09;49.97;;
71628;Laerm;59477;52.374;9.916;2023-09-19T00:42:46;41.41;38.80;45.94;;
71628;Laerm;59477;52.374;9.916;2023-09-19T00:44:47;41.97;38.58;46.07;;
71628;Laerm;59477;52.374;9.916;2023-09-19T00:46:47;42.13;39.37;44.97;;
71628;Laerm;59477;52.374;9.916;2023-09-19T00:48:49;41.28;38.50;44.73;;
71628;Laerm;59477;52.374;9.916;2023-09-19T00:50:49;42.78;39.13;49.20;;
71628;Laerm;59477;52.374;9.916;2023-09-19T00:52:53;41.65;39.24;44.91;;
71628;Laerm;59477;52.374;9.916;2023-09-19T00:54:56;40.62;38.34;43.20;;
71628;Laerm;59477;52.374;9.916;2023-09-19T00:56:56;40.74;38.19;44.19;;
71628;Laerm;59477;52.374;9.916;2023-09-19T00:58:57;41.73;39.13;45.89;;
71628;Laerm;59477;52.374;9.916;2023-09-19T01:00:57;42.09;38.41;48.21;;
71628;Laerm;59477;52.374;9.916;2023-09-19T01:02:57;42.50;39.75;47.54;;
71628;Laerm;59477;52.374;9.916;2023-09-19T01:04:58;41.52;38.79;46.32;;
71628;Laerm;59477;52.374;9.916;2023-09-19T01:07:00;42.46;38.95;50.59;;
71628;Laerm;59477;52.374;9.916;2023-09-19T01:09:00;40.91;38.60;43.99;;
71628;Laerm;59477;52.374;9.916;2023-09-19T01:13:51;42.40;39.11;46.39;;
71628;Laerm;59477;52.374;9.916;2023-09-19T01:15:58;43.10;39.83;48.38;;
71628;Laerm;59477;52.374;9.916;2023-09-19T01:18:01;41.48;38.81;45.37;;
71628;Laerm;59477;52.374;9.916;2023-09-19T01:22:13;42.79;40.05;47.26;;
71628;Laerm;59477;52.374;9.916;2023-09-19T01:26:44;43.53;39.40;49.13;;
71628;Laerm;59477;52.374;9.916;2023-09-19T01:31:14;46.78;39.08;55.57;;
71628;Laerm;59477;52.374;9.916;2023-09-19T01:33:15;43.12;39.04;48.24;;
71628;Laerm;59477;52.374;9.916;2023-09-19T01:35:15;43.98;40.25;51.20;;
71628;Laerm;59477;52.374;9.916;2023-09-19T01:37:16;48.83;40.55;59.81;;
71628;Laerm;59477;52.374;9.916;2023-09-19T01:39:25;45.00;40.93;49.15;;
71628;Laerm;59477;52.374;9.916;2023-09-19T01:41:35;43.66;40.20;49.01;;
71628;Laerm;59477;52.374;9.916;2023-09-19T01:43:41;43.65;39.95;48.94;;
71628;Laerm;59477;52.374;9.916;2023-09-19T01:47:52;42.94;39.66;47.67;;
71628;Laerm;59477;52.374;9.916;2023-09-19T01:50:02;41.91;38.76;47.85;;
71628;Laerm;59477;52.374;9.916;2023-09-19T01:52:09;42.07;39.07;47.13;;
71628;Laerm;59477;52.374;9.916;2023-09-19T01:54:16;42.02;38.78;47.07;;
71628;Laerm;59477;52.374;9.916;2023-09-19T01:56:22;42.38;38.91;46.56;;
71628;Laerm;59477;52.374;9.916;2023-09-19T02:00:23;42.08;39.10;47.20;;
71628;Laerm;59477;52.374;9.916;2023-09-19T02:02:25;42.40;38.99;52.23;;
71628;Laerm;59477;52.374;9.916;2023-09-19T02:04:25;43.32;39.18;48.86;;
71628;Laerm;59477;52.374;9.916;2023-09-19T02:06:26;44.11;39.62;50.34;;
71628;Laerm;59477;52.374;9.916;2023-09-19T02:08:27;42.94;38.86;49.36;;
71628;Laerm;59477;52.374;9.916;2023-09-19T02:10:27;42.39;38.66;47.03;;
71628;Laerm;59477;52.374;9.916;2023-09-19T02:12:27;42.81;38.64;47.44;;
71628;Laerm;59477;52.374;9.916;2023-09-19T02:14:28;42.34;39.04;51.80;;
71628;Laerm;59477;52.374;9.916;2023-09-19T02:16:29;42.07;39.19;47.44;;
71628;Laerm;59477;52.374;9.916;2023-09-19T02:18:30;42.28;39.79;45.82;;
71628;Laerm;59477;52.374;9.916;2023-09-19T02:20:30;44.94;40.06;54.08;;
71628;Laerm;59477;52.374;9.916;2023-09-19T02:22:32;44.18;40.61;50.43;;
71628;Laerm;59477;52.374;9.916;2023-09-19T02:24:33;45.43;40.72;51.68;;
71628;Laerm;59477;52.374;9.916;2023-09-19T02:26:33;44.05;40.39;49.99;;
71628;Laerm;59477;52.374;9.916;2023-09-19T02:28:36;43.05;39.79;47.02;;
71628;Laerm;59477;52.374;9.916;2023-09-19T02:30:36;43.04;39.11;48.54;;
71628;Laerm;59477;52.374;9.916;2023-09-19T02:32:36;43.59;40.23;47.87;;
71628;Laerm;59477;52.374;9.916;2023-09-19T02:34:38;45.10;40.82;49.71;;
71628;Laerm;59477;52.374;9.916;2023-09-19T02:36:39;45.05;39.72;53.02;;
71628;Laerm;59477;52.374;9.916;2023-09-19T02:38:39;45.33;39.91;50.54;;
71628;Laerm;59477;52.374;9.916;2023-09-19T02:40:39;45.96;40.12;51.97;;
71628;Laerm;59477;52.374;9.916;2023-09-19T02:42:42;46.89;41.59;53.13;;
71628;Laerm;59477;52.374;9.916;2023-09-19T02:44:42;47.03;42.91;53.00;;
71628;Laerm;59477;52.374;9.916;2023-09-19T02:46:42;44.21;40.40;48.46;;
71628;Laerm;59477;52.374;9.916;2023-09-19T02:48:43;44.54;40.55;50.05;;
71628;Laerm;59477;52.374;9.916;2023-09-19T02:50:43;47.41;40.97;61.06;;
71628;Laerm;59477;52.374;9.916;2023-09-19T02:52:45;45.94;39.22;54.34;;
71628;Laerm;59477;52.374;9.916;2023-09-19T02:54:47;44.96;40.05;50.05;;
71628;Laerm;59477;52.374;9.916;2023-09-19T02:56:47;47.29;42.65;56.77;;
71628;Laerm;59477;52.374;9.916;2023-09-19T02:58:47;47.04;42.22;55.35;;
71628;Laerm;59477;52.374;9.916;2023-09-19T03:00:48;45.12;40.78;50.94;;
71628;Laerm;59477;52.374;9.916;2023-09-19T03:02:50;48.43;42.77;55.79;;
71628;Laerm;59477;52.374;9.916;2023-09-19T03:04:53;47.37;42.98;55.91;;
71628;Laerm;59477;52.374;9.916;2023-09-19T03:06:53;47.12;41.69;53.14;;
71628;Laerm;59477;52.374;9.916;2023-09-19T03:08:58;45.52;41.52;52.18;;
71628;Laerm;59477;52.374;9.916;2023-09-19T03:11:01;46.25;40.92;52.29;;
71628;Laerm;59477;52.374;9.916;2023-09-19T03:13:02;46.54;41.69;53.11;;
71628;Laerm;59477;52.374;9.916;2023-09-19T03:15:02;46.82;42.37;60.94;;
71628;Laerm;59477;52.374;9.916;2023-09-19T03:17:04;47.25;41.47;52.55;;
71628;Laerm;59477;52.374;9.916;2023-09-19T03:19:05;47.25;42.23;56.38;;
71628;Laerm;59477;52.374;9.916;2023-09-19T03:21:05;46.08;42.00;51.24;;
71628;Laerm;59477;52.374;9.916;2023-09-19T03:23:05;47.30;42.60;53.64;;
71628;Laerm;59477;52.374;9.916;2023-09-19T03:25:07;47.16;42.20;52.40;;
71628;Laerm;59477;52.374;9.916;2023-09-19T03:27:12;47.70;43.21;52.52;;
71628;Laerm;59477;52.374;9.916;2023-09-19T03:29:14;49.44;45.13;55.59;;
71628;Laerm;59477;52.374;9.916;2023-09-19T03:31:15;48.66;44.09;54.72;;
71628;Laerm;59477;52.374;9.916;2023-09-19T03:33:16;47.19;43.69;53.08;;
71628;Laerm;59477;52.374;9.916;2023-09-19T03:35:16;47.81;43.15;55.29;;
71628;Laerm;59477;52.374;9.916;2023-09-19T03:37:17;50.44;44.48;59.46;;
71628;Laerm;59477;52.374;9.916;2023-09-19T03:39:18;47.91;42.99;52.25;;
71628;Laerm;59477;52.374;9.916;2023-09-19T03:41:18;47.66;43.06;52.33;;
71628;Laerm;59477;52.374;9.916;2023-09-19T03:43:18;48.12;43.97;53.22;;
71628;Laerm;59477;52.374;9.916;2023-09-19T03:45:19;47.59;43.35;53.01;;
71628;Laerm;59477;52.374;9.916;2023-09-19T03:47:19;47.75;43.58;54.08;;
71628;Laerm;59477;52.374;9.916;2023-09-19T03:49:19;49.55;44.44;54.55;;
71628;Laerm;59477;52.374;9.916;2023-09-19T03:51:20;48.26;44.55;53.45;;
71628;Laerm;59477;52.374;9.916;2023-09-19T03:53:20;49.30;44.18;55.64;;
71628;Laerm;59477;52.374;9.916;2023-09-19T03:55:20;49.12;43.76;57.30;;
71628;Laerm;59477;52.374;9.916;2023-09-19T03:57:21;47.60;44.10;51.45;;
71628;Laerm;59477;52.374;9.916;2023-09-19T03:59:21;49.44;44.55;55.50;;
71628;Laerm;59477;52.374;9.916;2023-09-19T04:01:21;47.55;43.17;51.53;;
71628;Laerm;59477;52.374;9.916;2023-09-19T04:03:22;47.61;43.83;51.70;;
71628;Laerm;59477;52.374;9.916;2023-09-19T04:05:22;46.90;43.50;51.51;;
71628;Laerm;59477;52.374;9.916;2023-09-19T04:07:23;46.48;42.74;52.43;;
71628;Laerm;59477;52.374;9.916;2023-09-19T04:09:23;46.24;42.80;50.35;;
71628;Laerm;59477;52.374;9.916;2023-09-19T04:11:23;46.84;43.08;52.25;;
71628;Laerm;59477;52.374;9.916;2023-09-19T04:13:23;46.16;43.09;49.45;;
71628;Laerm;59477;52.374;9.916;2023-09-19T04:15:24;45.76;41.53;50.19;;
71628;Laerm;59477;52.374;9.916;2023-09-19T04:17:24;45.75;42.11;50.97;;
71628;Laerm;59477;52.374;9.916;2023-09-19T04:19:24;45.76;41.69;50.04;;
71628;Laerm;59477;52.374;9.916;2023-09-19T04:21:25;44.90;41.74;50.63;;
71628;Laerm;59477;52.374;9.916;2023-09-19T04:23:26;46.19;42.45;53.82;;
71628;Laerm;59477;52.374;9.916;2023-09-19T04:25:27;46.50;42.89;51.70;;
71628;Laerm;59477;52.374;9.916;2023-09-19T04:27:28;45.97;42.41;50.19;;
71628;Laerm;59477;52.374;9.916;2023-09-19T04:29:28;45.51;42.04;48.69;;
71628;Laerm;59477;52.374;9.916;2023-09-19T04:31:29;45.65;42.31;49.96;;
71628;Laerm;59477;52.374;9.916;2023-09-19T04:33:30;45.67;41.00;60.82;;
71628;Laerm;59477;52.374;9.916;2023-09-19T04:35:30;46.78;43.20;53.07;;
71628;Laerm;59477;52.374;9.916;2023-09-19T04:37:31;45.75;41.87;49.64;;
71628;Laerm;59477;52.374;9.916;2023-09-19T04:39:32;46.47;42.22;63.87;;
71628;Laerm;59477;52.374;9.916;2023-09-19T04:41:34;45.38;42.07;49.33;;
71628;Laerm;59477;52.374;9.916;2023-09-19T04:43:34;46.02;42.58;49.60;;
71628;Laerm;59477;52.374;9.916;2023-09-19T04:45:34;46.36;42.94;50.27;;
71628;Laerm;59477;52.374;9.916;2023-09-19T04:47:38;47.04;43.17;65.37;;
71628;Laerm;59477;52.374;9.916;2023-09-19T04:49:39;47.06;42.74;65.25;;
71628;Laerm;59477;52.374;9.916;2023-09-19T04:51:40;46.21;42.74;50.56;;
71628;Laerm;59477;52.374;9.916;2023-09-19T04:53:40;45.87;42.55;48.40;;
71628;Laerm;59477;52.374;9.916;2023-09-19T04:55:41;46.12;42.60;50.57;;
71628;Laerm;59477;52.374;9.916;2023-09-19T04:57:41;46.11;42.25;50.90;;
71628;Laerm;59477;52.374;9.916;2023-09-19T04:59:42;46.27;42.82;50.85;;
71628;Laerm;59477;52.374;9.916;2023-09-19T05:01:42;47.11;43.69;57.61;;
71628;Laerm;59477;52.374;9.916;2023-09-19T05:03:42;46.65;43.14;54.45;;
71628;Laerm;59477;52.374;9.916;2023-09-19T05:05:44;46.40;42.85;50.61;;
71628;Laerm;59477;52.374;9.916;2023-09-19T05:07:47;45.77;42.48;52.85;;
71628;Laerm;59477;52.374;9.916;2023-09-19T05:09:51;45.82;42.51;50.39;;
71628;Laerm;59477;52.374;9.916;2023-09-19T05:11:51;46.50;43.22;55.29;;
71628;Laerm;59477;52.374;9.916;2023-09-19T05:13:52;47.10;43.23;55.93;;
71628;Laerm;59477;52.374;9.916;2023-09-19T05:15:53;48.00;44.15;55.69;;
71628;Laerm;59477;52.374;9.916;2023-09-19T05:17:53;48.15;44.62;52.27;;
71628;Laerm;59477;52.374;9.916;2023-09-19T05:19:55;46.86;43.77;50.60;;
71628;Laerm;59477;52.374;9.916;2023-09-19T05:21:55;47.36;43.64;52.32;;
71628;Laerm;59477;52.374;9.916;2023-09-19T05:23:56;47.41;43.69;53.98;;
71628;Laerm;59477;52.374;9.916;2023-09-19T05:25:56;46.78;43.36;51.23;;
71628;Laerm;59477;52.374;9.916;2023-09-19T05:27:58;47.93;44.10;51.89;;
71628;Laerm;59477;52.374;9.916;2023-09-19T05:29:59;46.66;43.17;53.13;;
71628;Laerm;59477;52.374;9.916;2023-09-19T05:31:59;47.24;43.58;51.69;;
71628;Laerm;59477;52.374;9.916;2023-09-19T05:34:00;47.62;42.62;52.24;;
71628;Laerm;59477;52.374;9.916;2023-09-19T05:36:01;47.48;43.86;52.39;;
71628;Laerm;59477;52.374;9.916;2023-09-19T05:38:01;47.75;44.06;52.37;;
71628;Laerm;59477;52.374;9.916;2023-09-19T05:40:01;45.76;42.02;56.41;;
71628;Laerm;59477;52.374;9.916;2023-09-19T05:42:02;47.00;42.88;51.27;;
71628;Laerm;59477;52.374;9.916;2023-09-19T05:44:03;47.57;43.39;57.19;;
71628;Laerm;59477;52.374;9.916;2023-09-19T05:46:03;46.16;42.88;60.92;;
71628;Laerm;59477;52.374;9.916;2023-09-19T05:48:07;46.09;42.50;51.15;;
71628;Laerm;59477;52.374;9.916;2023-09-19T05:50:08;48.43;43.29;54.54;;
71628;Laerm;59477;52.374;9.916;2023-09-19T05:52:09;47.90;43.23;53.44;;
71628;Laerm;59477;52.374;9.916;2023-09-19T05:54:09;48.57;43.84;59.51;;
71628;Laerm;59477;52.374;9.916;2023-09-19T05:56:11;48.07;43.68;53.69;;
71628;Laerm;59477;52.374;9.916;2023-09-19T05:58:11;48.50;44.38;55.11;;
71628;Laerm;59477;52.374;9.916;2023-09-19T06:00:14;50.85;44.77;62.69;;
71628;Laerm;59477;52.374;9.916;2023-09-19T06:02:14;49.09;44.83;53.68;;
71628;Laerm;59477;52.374;9.916;2023-09-19T06:04:15;48.36;43.81;58.02;;
71628;Laerm;59477;52.374;9.916;2023-09-19T06:06:15;50.09;43.92;56.20;;
71628;Laerm;59477;52.374;9.916;2023-09-19T06:08:15;49.35;45.16;54.56;;
71628;Laerm;59477;52.374;9.916;2023-09-19T06:10:16;52.48;45.47;77.43;;
71628;Laerm;59477;52.374;9.916;2023-09-19T06:12:17;49.60;44.42;55.81;;
71628;Laerm;59477;52.374;9.916;2023-09-19T06:14:17;48.68;44.95;52.92;;
71628;Laerm;59477;52.374;9.916;2023-09-19T06:16:18;49.66;44.55;55.72;;
71628;Laerm;59477;52.374;9.916;2023-09-19T06:18:19;49.18;44.13;53.94;;
71628;Laerm;59477;52.374;9.916;2023-09-19T06:20:20;50.44;45.42;58.59;;
71628;Laerm;59477;52.374;9.916;2023-09-19T06:22:20;61.28;44.45;76.36;;
71628;Laerm;59477;52.374;9.916;2023-09-19T06:24:20;50.38;45.64;57.57;;
71628;Laerm;59477;52.374;9.916;2023-09-19T06:26:21;49.01;43.24;61.00;;
71628;Laerm;59477;52.374;9.916;2023-09-19T06:28:21;47.86;43.96;51.98;;
71628;Laerm;59477;52.374;9.916;2023-09-19T06:30:25;47.14;43.13;54.99;;
71628;Laerm;59477;52.374;9.916;2023-09-19T06:32:26;48.09;42.61;57.33;;
71628;Laerm;59477;52.374;9.916;2023-09-19T06:34:27;48.02;42.72;62.89;;
71628;Laerm;59477;52.374;9.916;2023-09-19T06:36:27;52.50;43.63;73.32;;
71628;Laerm;59477;52.374;9.916;2023-09-19T06:38:27;47.73;43.74;53.16;;
71628;Laerm;59477;52.374;9.916;2023-09-19T06:40:28;48.74;44.85;52.69;;
71628;Laerm;59477;52.374;9.916;2023-09-19T06:42:28;48.80;44.91;53.81;;
71628;Laerm;59477;52.374;9.916;2023-09-19T06:44:28;47.17;43.01;54.47;;
71628;Laerm;59477;52.374;9.916;2023-09-19T06:46:29;47.50;42.01;63.54;;
71628;Laerm;59477;52.374;9.916;2023-09-19T06:48:33;47.68;42.59;63.50;;
71628;Laerm;59477;52.374;9.916;2023-09-19T06:50:33;47.55;42.79;52.63;;
71628;Laerm;59477;52.374;9.916;2023-09-19T06:52:34;47.65;42.65;56.26;;
71628;Laerm;59477;52.374;9.916;2023-09-19T06:54:35;46.76;42.78;55.55;;
71628;Laerm;59477;52.374;9.916;2023-09-19T06:56:36;47.55;44.02;52.07;;
71628;Laerm;59477;52.374;9.916;2023-09-19T06:58:36;47.77;44.11;54.46;;
71628;Laerm;59477;52.374;9.916;2023-09-19T07:00:37;50.37;43.56;62.06;;
71628;Laerm;59477;52.374;9.916;2023-09-19T07:02:37;49.92;44.11;59.40;;
71628;Laerm;59477;52.374;9.916;2023-09-19T07:04:37;48.71;42.86;65.04;;
71628;Laerm;59477;52.374;9.916;2023-09-19T07:06:38;48.66;44.05;53.54;;
71628;Laerm;59477;52.374;9.916;2023-09-19T07:08:38;49.86;43.15;60.85;;
71628;Laerm;59477;52.374;9.916;2023-09-19T07:10:39;49.81;43.83;55.28;;
71628;Laerm;59477;52.374;9.916;2023-09-19T07:12:48;52.53;45.10;61.62;;
71628;Laerm;59477;52.374;9.916;2023-09-19T07:14:53;51.79;45.33;62.80;;
71628;Laerm;59477;52.374;9.916;2023-09-19T07:16:56;50.62;45.79;58.13;;
71628;Laerm;59477;52.374;9.916;2023-09-19T07:18:56;49.01;45.00;61.61;;
71628;Laerm;59477;52.374;9.916;2023-09-19T07:20:57;49.84;45.19;54.64;;
71628;Laerm;59477;52.374;9.916;2023-09-19T07:23:01;48.36;43.63;56.38;;
71628;Laerm;59477;52.374;9.916;2023-09-19T07:25:01;49.54;44.77;58.91;;
71628;Laerm;59477;52.374;9.916;2023-09-19T07:27:02;48.16;43.84;55.04;;
71628;Laerm;59477;52.374;9.916;2023-09-19T07:29:02;48.45;43.67;55.04;;
71628;Laerm;59477;52.374;9.916;2023-09-19T07:31:03;49.91;43.94;60.00;;
71628;Laerm;59477;52.374;9.916;2023-09-19T07:33:05;53.79;46.08;65.88;;
71628;Laerm;59477;52.374;9.916;2023-09-19T07:35:06;52.04;44.29;72.59;;
71628;Laerm;59477;52.374;9.916;2023-09-19T07:37:06;48.63;44.06;53.87;;
71628;Laerm;59477;52.374;9.916;2023-09-19T07:39:06;52.62;47.28;59.69;;
71628;Laerm;59477;52.374;9.916;2023-09-19T07:41:07;51.56;45.81;61.22;;
71628;Laerm;59477;52.374;9.916;2023-09-19T07:43:08;52.52;45.58;58.40;;
71628;Laerm;59477;52.374;9.916;2023-09-19T07:45:09;53.47;47.75;63.04;;
71628;Laerm;59477;52.374;9.916;2023-09-19T07:47:14;51.17;45.33;58.42;;
71628;Laerm;59477;52.374;9.916;2023-09-19T07:49:14;47.54;43.19;55.79;;
71628;Laerm;59477;52.374;9.916;2023-09-19T07:51:17;53.64;44.69;73.37;;
71628;Laerm;59477;52.374;9.916;2023-09-19T07:53:18;54.02;45.55;70.42;;
71628;Laerm;59477;52.374;9.916;2023-09-19T07:55:19;52.57;45.65;60.57;;
71628;Laerm;59477;52.374;9.916;2023-09-19T07:57:20;54.05;48.17;63.09;;
71628;Laerm;59477;52.374;9.916;2023-09-19T07:59:21;54.09;46.60;64.28;;
71628;Laerm;59477;52.374;9.916;2023-09-19T08:01:21;53.48;45.11;70.11;;
71628;Laerm;59477;52.374;9.916;2023-09-19T08:03:23;49.82;44.31;61.41;;
71628;Laerm;59477;52.374;9.916;2023-09-19T08:05:24;51.23;46.67;60.47;;
71628;Laerm;59477;52.374;9.916;2023-09-19T08:07:24;50.07;46.15;62.85;;
71628;Laerm;59477;52.374;9.916;2023-09-19T08:09:24;52.21;45.25;59.68;;
71628;Laerm;59477;52.374;9.916;2023-09-19T08:11:28;54.26;43.43;69.69;;
71628;Laerm;59477;52.374;9.916;2023-09-19T08:13:31;52.35;44.69;70.11;;
71628;Laerm;59477;52.374;9.916;2023-09-19T08:15:31;51.28;45.79;61.84;;
71628;Laerm;59477;52.374;9.916;2023-09-19T08:17:35;50.94;46.21;57.61;;
71628;Laerm;59477;52.374;9.916;2023-09-19T08:19:35;50.77;44.92;57.81;;
71628;Laerm;59477;52.374;9.916;2023-09-19T08:21:40;49.78;44.25;56.62;;
71628;Laerm;59477;52.374;9.916;2023-09-19T08:23:41;52.18;44.11;65.95;;
71628;Laerm;59477;52.374;9.916;2023-09-19T08:25:42;51.06;45.84;59.75;;
71628;Laerm;59477;52.374;9.916;2023-09-19T08:27:42;49.12;44.54;55.03;;
71628;Laerm;59477;52.374;9.916;2023-09-19T08:29:45;49.75;43.54;62.90;;
71628;Laerm;59477;52.374;9.916;2023-09-19T08:31:46;49.68;44.59;55.49;;
71628;Laerm;59477;52.374;9.916;2023-09-19T08:33:49;53.39;43.89;81.71;;
71628;Laerm;59477;52.374;9.916;2023-09-19T08:35:51;50.44;44.54;57.80;;
71628;Laerm;59477;52.374;9.916;2023-09-19T08:37:51;49.30;44.14;62.49;;
71628;Laerm;59477;52.374;9.916;2023-09-19T08:39:52;47.70;42.82;54.61;;
71628;Laerm;59477;52.374;9.916;2023-09-19T08:41:58;48.97;42.24;61.37;;
71628;Laerm;59477;52.374;9.916;2023-09-19T08:43:59;52.15;44.24;62.80;;
71628;Laerm;59477;52.374;9.916;2023-09-19T08:46:43;49.39;44.14;55.63;;
71628;Laerm;59477;52.374;9.916;2023-09-19T08:48:28;50.25;43.42;60.38;;
71628;Laerm;59477;52.374;9.916;2023-09-19T08:50:29;50.27;44.26;61.90;;
71628;Laerm;59477;52.374;9.916;2023-09-19T08:52:37;48.15;44.63;52.48;;
71628;Laerm;59477;52.374;9.916;2023-09-19T08:54:40;49.02;43.94;62.39;;
71628;Laerm;59477;52.374;9.916;2023-09-19T08:56:41;49.48;43.80;55.73;;
71628;Laerm;59477;52.374;9.916;2023-09-19T08:58:53;47.97;43.49;56.06;;
71628;Laerm;59477;52.374;9.916;2023-09-19T09:00:56;49.17;43.79;56.33;;
71628;Laerm;59477;52.374;9.916;2023-09-19T09:02:57;51.09;45.90;63.86;;
71628;Laerm;59477;52.374;9.916;2023-09-19T09:04:58;51.23;45.64;57.14;;
71628;Laerm;59477;52.374;9.916;2023-09-19T09:06:59;50.56;44.94;56.43;;
71628;Laerm;59477;52.374;9.916;2023-09-19T09:09:00;49.90;43.97;66.75;;
71628;Laerm;59477;52.374;9.916;2023-09-19T09:11:01;51.95;46.71;57.25;;
71628;Laerm;59477;52.374;9.916;2023-09-19T09:13:02;52.47;47.55;64.13;;
71628;Laerm;59477;52.374;9.916;2023-09-19T09:15:04;50.63;45.46;57.09;;
71628;Laerm;59477;52.374;9.916;2023-09-19T09:17:04;49.52;45.23;66.71;;
71628;Laerm;59477;52.374;9.916;2023-09-19T09:19:04;49.84;43.87;56.90;;
71628;Laerm;59477;52.374;9.916;2023-09-19T09:21:04;48.22;44.21;55.47;;
71628;Laerm;59477;52.374;9.916;2023-09-19T09:23:05;50.74;45.37;58.37;;
71628;Laerm;59477;52.374;9.916;2023-09-19T09:25:06;49.54;43.02;64.78;;
71628;Laerm;59477;52.374;9.916;2023-09-19T09:27:06;50.59;44.88;58.96;;
71628;Laerm;59477;52.374;9.916;2023-09-19T09:29:10;49.52;42.89;56.18;;
71628;Laerm;59477;52.374;9.916;2023-09-19T09:31:44;49.54;42.76;66.87;;
71628;Laerm;59477;52.374;9.916;2023-09-19T09:33:38;49.48;44.19;54.72;;
71628;Laerm;59477;52.374;9.916;2023-09-19T09:35:49;49.04;43.44;55.22;;
71628;Laerm;59477;52.374;9.916;2023-09-19T09:37:59;53.88;45.96;66.75;;
71628;Laerm;59477;52.374;9.916;2023-09-19T09:40:03;52.12;44.92;72.89;;
71628;Laerm;59477;52.374;9.916;2023-09-19T09:42:28;51.83;44.66;60.93;;
71628;Laerm;59477;52.374;9.916;2023-09-19T09:44:31;52.74;43.88;67.56;;
71628;Laerm;59477;52.374;9.916;2023-09-19T09:46:32;50.93;45.45;57.12;;
71628;Laerm;59477;52.374;9.916;2023-09-19T09:51:13;51.66;44.24;59.94;;
71628;Laerm;59477;52.374;9.916;2023-09-19T09:53:23;47.85;43.12;53.59;;
71628;Laerm;59477;52.374;9.916;2023-09-19T09:55:31;49.08;44.38;58.59;;
71628;Laerm;59477;52.374;9.916;2023-09-19T09:57:55;50.73;43.83;66.32;;
71628;Laerm;59477;52.374;9.916;2023-09-19T10:00:03;51.87;44.21;63.22;;
71628;Laerm;59477;52.374;9.916;2023-09-19T10:02:14;52.10;44.37;60.68;;
71628;Laerm;59477;52.374;9.916;2023-09-19T10:04:28;49.56;42.34;63.10;;
71628;Laerm;59477;52.374;9.916;2023-09-19T10:06:42;56.36;45.00;68.47;;
71628;Laerm;59477;52.374;9.916;2023-09-19T10:11:24;49.55;43.85;58.72;;
71628;Laerm;59477;52.374;9.916;2023-09-19T10:13:30;52.70;47.45;59.48;;
71628;Laerm;59477;52.374;9.916;2023-09-19T10:15:31;54.45;46.30;65.02;;
71628;Laerm;59477;52.374;9.916;2023-09-19T10:17:32;50.25;44.75;59.62;;
71628;Laerm;59477;52.374;9.916;2023-09-19T10:19:41;52.86;47.14;62.33;;
71628;Laerm;59477;52.374;9.916;2023-09-19T10:21:46;54.05;45.43;62.42;;
71628;Laerm;59477;52.374;9.916;2023-09-19T10:23:48;53.63;45.61;70.59;;
71628;Laerm;59477;52.374;9.916;2023-09-19T10:25:49;54.03;46.79;63.17;;
71628;Laerm;59477;52.374;9.916;2023-09-19T10:27:50;54.28;46.78;70.33;;
71628;Laerm;59477;52.374;9.916;2023-09-19T10:29:50;55.99;46.10;87.81;;
71628;Laerm;59477;52.374;9.916;2023-09-19T10:31:52;49.43;43.22;57.77;;
71628;Laerm;59477;52.374;9.916;2023-09-19T10:33:53;51.44;45.67;60.98;;
71628;Laerm;59477;52.374;9.916;2023-09-19T10:35:56;52.92;45.52;67.17;;
71628;Laerm;59477;52.374;9.916;2023-09-19T10:38:00;51.57;44.12;66.31;;
71628;Laerm;59477;52.374;9.916;2023-09-19T10:40:01;49.58;43.39;59.64;;
71628;Laerm;59477;52.374;9.916;2023-09-19T10:42:02;51.59;44.48;60.69;;
71628;Laerm;59477;52.374;9.916;2023-09-19T10:44:05;51.32;44.80;61.96;;
71628;Laerm;59477;52.374;9.916;2023-09-19T10:46:06;48.04;43.31;57.59;;
71628;Laerm;59477;52.374;9.916;2023-09-19T10:48:07;53.42;45.59;68.08;;
71628;Laerm;59477;52.374;9.916;2023-09-19T10:50:07;54.45;46.31;70.17;;
71628;Laerm;59477;52.374;9.916;2023-09-19T10:52:10;51.68;43.06;62.42;;
71628;Laerm;59477;52.374;9.916;2023-09-19T10:54:18;51.59;44.82;60.94;;
71628;Laerm;59477;52.374;9.916;2023-09-19T10:56:23;52.80;46.80;59.64;;
71628;Laerm;59477;52.374;9.916;2023-09-19T10:58:26;54.66;46.09;66.69;;
71628;Laerm;59477;52.374;9.916;2023-09-19T11:00:29;54.07;48.15;64.58;;
71628;Laerm;59477;52.374;9.916;2023-09-19T11:02:34;51.83;46.45;57.47;;
71628;Laerm;59477;52.374;9.916;2023-09-19T11:04:36;51.40;43.65;63.83;;
71628;Laerm;59477;52.374;9.916;2023-09-19T11:06:36;51.09;45.65;56.51;;
71628;Laerm;59477;52.374;9.916;2023-09-19T11:08:59;52.64;45.53;61.20;;
71628;Laerm;59477;52.374;9.916;2023-09-19T11:13:33;48.54;43.39;55.66;;
71628;Laerm;59477;52.374;9.916;2023-09-19T11:17:56;49.28;43.55;56.37;;
71628;Laerm;59477;52.374;9.916;2023-09-19T11:22:11;51.54;44.87;59.14;;
71628;Laerm;59477;52.374;9.916;2023-09-19T11:27:08;55.04;44.27;70.59;;
71628;Laerm;59477;52.374;9.916;2023-09-19T11:28:57;52.29;45.41;59.91;;
71628;Laerm;59477;52.374;9.916;2023-09-19T11:31:40;52.82;44.53;63.42;;
71628;Laerm;59477;52.374;9.916;2023-09-19T11:33:41;52.73;44.60;61.98;;
71628;Laerm;59477;52.374;9.916;2023-09-19T11:38:05;57.93;44.65;73.27;;
71628;Laerm;59477;52.374;9.916;2023-09-19T11:40:11;52.88;44.88;64.49;;
71628;Laerm;59477;52.374;9.916;2023-09-19T11:44:36;53.45;46.90;61.53;;
71628;Laerm;59477;52.374;9.916;2023-09-19T11:48:51;50.72;44.70;58.94;;
71628;Laerm;59477;52.374;9.916;2023-09-19T11:50:51;56.21;46.01;70.54;;
71628;Laerm;59477;52.374;9.916;2023-09-19T11:52:52;53.44;43.65;72.77;;
71628;Laerm;59477;52.374;9.916;2023-09-19T11:54:55;49.72;44.68;61.55;;
71628;Laerm;59477;52.374;9.916;2023-09-19T11:56:58;52.56;43.71;62.88;;
71628;Laerm;59477;52.374;9.916;2023-09-19T11:59:02;55.93;47.41;69.63;;